sensor_id;sensor_type;location;lat;lon;timestamp;temperature;humidity
28087;DHT22;15392;48.912;8.380;2023-01-08T00:00:48;13.90;52.70
28087;DHT22;15392;48.912;8.380;2023-01-08T00:03:14;13.90;52.70
28087;DHT22;15392;48.912;8.380;2023-01-08T00:05:40;13.90;52.80
28087;DHT22;15392;48.912;8.380;2023-01-08T00:08:07;13.90;52.70
28087;DHT22;15392;48.912;8.380;2023-01-08T00:10:34;13.90;52.50
28087;DHT22;15392;48.912;8.380;2023-01-08T00:13:00;13.90;52.60
28087;DHT22;15392;48.912;8.380;2023-01-08T00:15:27;13.90;52.70
28087;DHT22;15392;48.912;8.380;2023-01-08T00:17:55;13.90;52.70
28087;DHT22;15392;48.912;8.380;2023-01-08T00:20:22;13.90;52.70
28087;DHT22;15392;48.912;8.380;2023-01-08T00:22:49;13.90;52.70
28087;DHT22;15392;48.912;8.380;2023-01-08T00:25:16;13.90;52.80
28087;DHT22;15392;48.912;8.380;2023-01-08T00:27:42;13.90;52.80
28087;DHT22;15392;48.912;8.380;2023-01-08T00:30:08;13.90;52.80
28087;DHT22;15392;48.912;8.380;2023-01-08T00:32:34;13.90;52.80
28087;DHT22;15392;48.912;8.380;2023-01-08T00:35:00;13.90;52.80
28087;DHT22;15392;48.912;8.380;2023-01-08T00:37:26;13.90;52.80
28087;DHT22;15392;48.912;8.380;2023-01-08T00:39:53;13.90;52.80
28087;DHT22;15392;48.912;8.380;2023-01-08T00:42:19;13.90;52.80
28087;DHT22;15392;48.912;8.380;2023-01-08T00:44:46;13.80;52.80
28087;DHT22;15392;48.912;8.380;2023-01-08T00:47:11;13.80;52.80
28087;DHT22;15392;48.912;8.380;2023-01-08T00:49:37;13.80;52.80
28087;DHT22;15392;48.912;8.380;2023-01-08T00:52:03;13.80;52.80
28087;DHT22;15392;48.912;8.380;2023-01-08T00:54:29;13.80;52.90
28087;DHT22;15392;48.912;8.380;2023-01-08T00:56:55;13.80;52.90
28087;DHT22;15392;48.912;8.380;2023-01-08T00:59:21;13.80;52.90
28087;DHT22;15392;48.912;8.380;2023-01-08T01:01:47;13.80;52.90
28087;DHT22;15392;48.912;8.380;2023-01-08T01:04:13;13.80;53.00
28087;DHT22;15392;48.912;8.380;2023-01-08T01:06:40;13.90;53.10
28087;DHT22;15392;48.912;8.380;2023-01-08T01:09:06;13.90;53.00
28087;DHT22;15392;48.912;8.380;2023-01-08T01:11:32;13.80;52.90
28087;DHT22;15392;48.912;8.380;2023-01-08T01:13:58;13.80;52.90
28087;DHT22;15392;48.912;8.380;2023-01-08T01:16:24;13.90;52.90
28087;DHT22;15392;48.912;8.380;2023-01-08T01:18:51;13.90;52.90
28087;DHT22;15392;48.912;8.380;2023-01-08T01:21:26;13.90;52.90
28087;DHT22;15392;48.912;8.380;2023-01-08T01:23:56;13.90;52.80
28087;DHT22;15392;48.912;8.380;2023-01-08T01:26:24;13.90;52.70
28087;DHT22;15392;48.912;8.380;2023-01-08T01:28:52;13.90;53.20
28087;DHT22;15392;48.912;8.380;2023-01-08T01:31:20;13.90;52.50
28087;DHT22;15392;48.912;8.380;2023-01-08T01:33:47;13.90;52.60
28087;DHT22;15392;48.912;8.380;2023-01-08T01:36:14;13.90;52.60
28087;DHT22;15392;48.912;8.380;2023-01-08T01:38:42;13.90;52.70
28087;DHT22;15392;48.912;8.380;2023-01-08T01:41:31;13.90;52.60
28087;DHT22;15392;48.912;8.380;2023-01-08T01:44:40;13.90;52.80
28087;DHT22;15392;48.912;8.380;2023-01-08T01:50:06;13.90;52.90
28087;DHT22;15392;48.912;8.380;2023-01-08T01:52:48;13.90;52.70
28087;DHT22;15392;48.912;8.380;2023-01-08T01:55:17;13.80;52.70
28087;DHT22;15392;48.912;8.380;2023-01-08T01:57:48;13.80;52.60
28087;DHT22;15392;48.912;8.380;2023-01-08T02:00:17;13.80;52.70
28087;DHT22;15392;48.912;8.380;2023-01-08T02:02:44;13.80;52.70
28087;DHT22;15392;48.912;8.380;2023-01-08T02:05:10;13.80;52.60
28087;DHT22;15392;48.912;8.380;2023-01-08T02:07:49;13.80;52.60
28087;DHT22;15392;48.912;8.380;2023-01-08T02:10:47;13.80;52.70
28087;DHT22;15392;48.912;8.380;2023-01-08T02:13:32;13.80;52.60
28087;DHT22;15392;48.912;8.380;2023-01-08T02:16:15;13.80;52.70
28087;DHT22;15392;48.912;8.380;2023-01-08T02:27:16;13.90;52.90
28087;DHT22;15392;48.912;8.380;2023-01-08T02:29:43;13.90;52.70
28087;DHT22;15392;48.912;8.380;2023-01-08T02:32:09;13.90;52.80
28087;DHT22;15392;48.912;8.380;2023-01-08T02:34:35;13.90;52.70
28087;DHT22;15392;48.912;8.380;2023-01-08T02:37:01;13.90;52.80
28087;DHT22;15392;48.912;8.380;2023-01-08T02:39:44;13.90;52.80
28087;DHT22;15392;48.912;8.380;2023-01-08T02:42:28;13.90;53.10
28087;DHT22;15392;48.912;8.380;2023-01-08T02:47:40;13.90;53.00
28087;DHT22;15392;48.912;8.380;2023-01-08T02:52:41;13.90;52.90
28087;DHT22;15392;48.912;8.380;2023-01-08T02:55:12;14.00;53.00
28087;DHT22;15392;48.912;8.380;2023-01-08T02:57:40;14.00;53.00
28087;DHT22;15392;48.912;8.380;2023-01-08T03:00:06;14.00;53.00
28087;DHT22;15392;48.912;8.380;2023-01-08T03:02:34;14.00;53.00
28087;DHT22;15392;48.912;8.380;2023-01-08T03:05:08;14.00;53.10
28087;DHT22;15392;48.912;8.380;2023-01-08T03:07:39;14.10;53.20
28087;DHT22;15392;48.912;8.380;2023-01-08T03:10:05;14.10;53.10
28087;DHT22;15392;48.912;8.380;2023-01-08T03:12:46;14.00;53.00
28087;DHT22;15392;48.912;8.380;2023-01-08T03:15:23;14.10;53.10
28087;DHT22;15392;48.912;8.380;2023-01-08T03:18:05;14.10;53.10
28087;DHT22;15392;48.912;8.380;2023-01-08T03:20:36;14.10;53.20
28087;DHT22;15392;48.912;8.380;2023-01-08T03:23:06;14.10;53.10
28087;DHT22;15392;48.912;8.380;2023-01-08T03:25:35;14.10;53.20
28087;DHT22;15392;48.912;8.380;2023-01-08T03:28:06;14.20;53.10
28087;DHT22;15392;48.912;8.380;2023-01-08T03:30:38;14.20;53.10
28087;DHT22;15392;48.912;8.380;2023-01-08T03:33:04;14.10;53.00
28087;DHT22;15392;48.912;8.380;2023-01-08T03:35:31;14.10;52.90
28087;DHT22;15392;48.912;8.380;2023-01-08T03:38:35;14.10;52.80
28087;DHT22;15392;48.912;8.380;2023-01-08T03:41:09;14.10;53.30
28087;DHT22;15392;48.912;8.380;2023-01-08T03:43:37;14.00;52.80
28087;DHT22;15392;48.912;8.380;2023-01-08T03:46:06;14.00;52.80
28087;DHT22;15392;48.912;8.380;2023-01-08T03:48:39;13.90;53.00
28087;DHT22;15392;48.912;8.380;2023-01-08T03:51:09;13.90;53.70
28087;DHT22;15392;48.912;8.380;2023-01-08T03:53:35;13.90;53.30
28087;DHT22;15392;48.912;8.380;2023-01-08T03:56:01;13.90;53.30
28087;DHT22;15392;48.912;8.380;2023-01-08T03:58:27;13.90;53.50
28087;DHT22;15392;48.912;8.380;2023-01-08T04:00:53;13.90;53.50
28087;DHT22;15392;48.912;8.380;2023-01-08T04:03:18;13.90;53.60
28087;DHT22;15392;48.912;8.380;2023-01-08T04:05:44;13.90;53.60
28087;DHT22;15392;48.912;8.380;2023-01-08T04:08:10;13.90;53.70
28087;DHT22;15392;48.912;8.380;2023-01-08T04:10:36;13.90;53.70
28087;DHT22;15392;48.912;8.380;2023-01-08T04:13:01;13.90;53.80
28087;DHT22;15392;48.912;8.380;2023-01-08T04:15:27;13.90;53.80
28087;DHT22;15392;48.912;8.380;2023-01-08T04:17:53;13.90;54.50
28087;DHT22;15392;48.912;8.380;2023-01-08T04:20:19;13.90;53.90
28087;DHT22;15392;48.912;8.380;2023-01-08T04:22:45;13.90;54.00
28087;DHT22;15392;48.912;8.380;2023-01-08T04:25:10;13.90;54.00
28087;DHT22;15392;48.912;8.380;2023-01-08T04:27:36;13.90;54.10
28087;DHT22;15392;48.912;8.380;2023-01-08T04:30:03;13.90;54.20
28087;DHT22;15392;48.912;8.380;2023-01-08T04:32:29;13.90;54.20
28087;DHT22;15392;48.912;8.380;2023-01-08T04:34:54;13.90;54.30
28087;DHT22;15392;48.912;8.380;2023-01-08T04:37:20;14.00;54.40
28087;DHT22;15392;48.912;8.380;2023-01-08T04:39:46;14.00;54.40
28087;DHT22;15392;48.912;8.380;2023-01-08T04:42:11;13.90;54.50
28087;DHT22;15392;48.912;8.380;2023-01-08T04:44:37;14.00;54.60
28087;DHT22;15392;48.912;8.380;2023-01-08T04:47:03;14.00;54.70
28087;DHT22;15392;48.912;8.380;2023-01-08T04:49:29;13.90;54.80
28087;DHT22;15392;48.912;8.380;2023-01-08T04:51:54;14.00;54.90
28087;DHT22;15392;48.912;8.380;2023-01-08T04:54:20;13.90;54.90
28087;DHT22;15392;48.912;8.380;2023-01-08T04:56:49;13.90;55.60
28087;DHT22;15392;48.912;8.380;2023-01-08T04:59:16;13.90;55.20
28087;DHT22;15392;48.912;8.380;2023-01-08T05:01:41;13.90;55.20
28087;DHT22;15392;48.912;8.380;2023-01-08T05:04:08;13.90;55.20
28087;DHT22;15392;48.912;8.380;2023-01-08T05:06:35;13.90;55.20
28087;DHT22;15392;48.912;8.380;2023-01-08T05:09:01;13.90;55.20
28087;DHT22;15392;48.912;8.380;2023-01-08T05:11:27;13.90;55.30
28087;DHT22;15392;48.912;8.380;2023-01-08T05:13:53;13.90;55.40
28087;DHT22;15392;48.912;8.380;2023-01-08T05:16:19;13.90;55.50
28087;DHT22;15392;48.912;8.380;2023-01-08T05:18:45;13.90;55.60
28087;DHT22;15392;48.912;8.380;2023-01-08T05:21:11;13.90;55.60
28087;DHT22;15392;48.912;8.380;2023-01-08T05:23:38;13.90;55.70
28087;DHT22;15392;48.912;8.380;2023-01-08T05:26:05;13.90;55.70
28087;DHT22;15392;48.912;8.380;2023-01-08T05:28:32;13.90;55.70
28087;DHT22;15392;48.912;8.380;2023-01-08T05:30:58;14.00;55.80
28087;DHT22;15392;48.912;8.380;2023-01-08T05:33:25;14.00;55.80
28087;DHT22;15392;48.912;8.380;2023-01-08T05:35:51;14.00;55.80
28087;DHT22;15392;48.912;8.380;2023-01-08T05:38:17;14.00;55.70
28087;DHT22;15392;48.912;8.380;2023-01-08T05:40:43;14.00;55.70
28087;DHT22;15392;48.912;8.380;2023-01-08T05:43:08;13.90;55.70
28087;DHT22;15392;48.912;8.380;2023-01-08T05:45:34;14.00;55.80
28087;DHT22;15392;48.912;8.380;2023-01-08T05:48:04;14.00;55.90
28087;DHT22;15392;48.912;8.380;2023-01-08T05:50:31;13.90;56.00
28087;DHT22;15392;48.912;8.380;2023-01-08T05:52:57;13.90;55.80
28087;DHT22;15392;48.912;8.380;2023-01-08T05:55:24;13.90;56.00
28087;DHT22;15392;48.912;8.380;2023-01-08T05:57:49;13.90;56.00
28087;DHT22;15392;48.912;8.380;2023-01-08T06:00:15;13.90;56.10
28087;DHT22;15392;48.912;8.380;2023-01-08T06:02:45;13.90;56.10
28087;DHT22;15392;48.912;8.380;2023-01-08T06:05:11;13.90;56.40
28087;DHT22;15392;48.912;8.380;2023-01-08T06:07:37;13.90;57.40
28087;DHT22;15392;48.912;8.380;2023-01-08T06:10:03;13.90;55.90
28087;DHT22;15392;48.912;8.380;2023-01-08T06:12:29;13.90;56.10
28087;DHT22;15392;48.912;8.380;2023-01-08T06:14:55;13.90;56.10
28087;DHT22;15392;48.912;8.380;2023-01-08T06:17:21;13.90;56.20
28087;DHT22;15392;48.912;8.380;2023-01-08T06:19:47;13.90;56.30
28087;DHT22;15392;48.912;8.380;2023-01-08T06:22:12;13.90;56.30
28087;DHT22;15392;48.912;8.380;2023-01-08T06:24:38;13.90;56.30
28087;DHT22;15392;48.912;8.380;2023-01-08T06:27:04;14.00;56.40
28087;DHT22;15392;48.912;8.380;2023-01-08T06:29:30;14.00;56.40
28087;DHT22;15392;48.912;8.380;2023-01-08T06:31:55;14.00;56.40
28087;DHT22;15392;48.912;8.380;2023-01-08T06:34:21;14.00;56.50
28087;DHT22;15392;48.912;8.380;2023-01-08T06:36:47;14.00;56.50
28087;DHT22;15392;48.912;8.380;2023-01-08T06:39:12;14.00;56.60
28087;DHT22;15392;48.912;8.380;2023-01-08T06:41:38;14.00;56.70
28087;DHT22;15392;48.912;8.380;2023-01-08T06:44:04;14.00;56.70
28087;DHT22;15392;48.912;8.380;2023-01-08T06:46:30;14.00;56.70
28087;DHT22;15392;48.912;8.380;2023-01-08T06:48:56;14.00;56.60
28087;DHT22;15392;48.912;8.380;2023-01-08T06:51:21;14.00;56.70
28087;DHT22;15392;48.912;8.380;2023-01-08T06:53:47;14.00;56.70
28087;DHT22;15392;48.912;8.380;2023-01-08T06:56:13;14.00;56.80
28087;DHT22;15392;48.912;8.380;2023-01-08T06:58:39;14.00;56.80
28087;DHT22;15392;48.912;8.380;2023-01-08T07:01:05;14.00;56.80
28087;DHT22;15392;48.912;8.380;2023-01-08T07:03:31;14.10;56.90
28087;DHT22;15392;48.912;8.380;2023-01-08T07:05:56;14.10;56.90
28087;DHT22;15392;48.912;8.380;2023-01-08T07:08:22;14.00;56.80
28087;DHT22;15392;48.912;8.380;2023-01-08T07:10:48;14.00;56.90
28087;DHT22;15392;48.912;8.380;2023-01-08T07:13:14;14.10;56.70
28087;DHT22;15392;48.912;8.380;2023-01-08T07:15:41;14.10;56.70
28087;DHT22;15392;48.912;8.380;2023-01-08T07:18:09;14.10;56.70
28087;DHT22;15392;48.912;8.380;2023-01-08T07:20:36;14.00;56.70
28087;DHT22;15392;48.912;8.380;2023-01-08T07:23:03;14.00;56.60
28087;DHT22;15392;48.912;8.380;2023-01-08T07:25:30;14.00;56.80
28087;DHT22;15392;48.912;8.380;2023-01-08T07:27:56;14.00;56.80
28087;DHT22;15392;48.912;8.380;2023-01-08T07:30:22;14.00;56.80
28087;DHT22;15392;48.912;8.380;2023-01-08T07:32:48;14.00;56.80
28087;DHT22;15392;48.912;8.380;2023-01-08T07:35:14;14.00;56.90
28087;DHT22;15392;48.912;8.380;2023-01-08T07:37:41;14.10;56.90
28087;DHT22;15392;48.912;8.380;2023-01-08T07:40:08;14.10;57.00
28087;DHT22;15392;48.912;8.380;2023-01-08T07:42:36;14.10;57.10
28087;DHT22;15392;48.912;8.380;2023-01-08T07:45:02;14.10;57.20
28087;DHT22;15392;48.912;8.380;2023-01-08T07:47:28;14.10;57.20
28087;DHT22;15392;48.912;8.380;2023-01-08T07:49:53;14.10;57.20
28087;DHT22;15392;48.912;8.380;2023-01-08T07:52:19;14.10;57.20
28087;DHT22;15392;48.912;8.380;2023-01-08T07:54:45;14.10;57.20
28087;DHT22;15392;48.912;8.380;2023-01-08T07:57:11;14.10;57.30
28087;DHT22;15392;48.912;8.380;2023-01-08T07:59:36;14.20;57.20
28087;DHT22;15392;48.912;8.380;2023-01-08T08:02:02;14.20;57.20
28087;DHT22;15392;48.912;8.380;2023-01-08T08:04:28;14.20;57.20
28087;DHT22;15392;48.912;8.380;2023-01-08T08:06:54;14.20;57.90
28087;DHT22;15392;48.912;8.380;2023-01-08T08:09:20;14.20;57.30
28087;DHT22;15392;48.912;8.380;2023-01-08T08:11:46;14.20;57.90
28087;DHT22;15392;48.912;8.380;2023-01-08T08:14:11;14.20;57.30
28087;DHT22;15392;48.912;8.380;2023-01-08T08:16:37;14.20;57.30
28087;DHT22;15392;48.912;8.380;2023-01-08T08:19:03;14.20;57.40
28087;DHT22;15392;48.912;8.380;2023-01-08T08:21:29;14.20;57.40
28087;DHT22;15392;48.912;8.380;2023-01-08T08:23:55;14.20;57.40
28087;DHT22;15392;48.912;8.380;2023-01-08T08:26:22;14.20;57.40
28087;DHT22;15392;48.912;8.380;2023-01-08T08:28:48;14.20;57.40
28087;DHT22;15392;48.912;8.380;2023-01-08T08:31:14;14.20;57.30
28087;DHT22;15392;48.912;8.380;2023-01-08T08:33:40;14.20;57.20
28087;DHT22;15392;48.912;8.380;2023-01-08T08:36:06;14.20;57.20
28087;DHT22;15392;48.912;8.380;2023-01-08T08:38:33;14.20;57.30
28087;DHT22;15392;48.912;8.380;2023-01-08T08:40:59;14.20;57.40
28087;DHT22;15392;48.912;8.380;2023-01-08T08:43:24;14.20;57.40
28087;DHT22;15392;48.912;8.380;2023-01-08T08:45:50;14.20;57.40
28087;DHT22;15392;48.912;8.380;2023-01-08T08:48:16;14.30;57.50
28087;DHT22;15392;48.912;8.380;2023-01-08T08:50:42;14.30;57.50
28087;DHT22;15392;48.912;8.380;2023-01-08T08:53:09;14.30;57.50
28087;DHT22;15392;48.912;8.380;2023-01-08T08:55:35;14.30;57.50
28087;DHT22;15392;48.912;8.380;2023-01-08T08:58:03;14.30;57.50
28087;DHT22;15392;48.912;8.380;2023-01-08T09:00:30;14.30;57.40
28087;DHT22;15392;48.912;8.380;2023-01-08T09:02:56;14.30;57.50
28087;DHT22;15392;48.912;8.380;2023-01-08T09:05:21;14.30;57.40
28087;DHT22;15392;48.912;8.380;2023-01-08T09:07:47;14.30;57.50
28087;DHT22;15392;48.912;8.380;2023-01-08T09:10:14;14.30;57.50
28087;DHT22;15392;48.912;8.380;2023-01-08T09:12:39;14.30;57.50
28087;DHT22;15392;48.912;8.380;2023-01-08T09:15:05;14.30;57.60
28087;DHT22;15392;48.912;8.380;2023-01-08T09:17:32;14.30;57.60
28087;DHT22;15392;48.912;8.380;2023-01-08T09:19:58;14.30;57.50
28087;DHT22;15392;48.912;8.380;2023-01-08T09:22:24;14.30;57.50
28087;DHT22;15392;48.912;8.380;2023-01-08T09:24:49;14.30;57.50
28087;DHT22;15392;48.912;8.380;2023-01-08T09:27:15;14.30;57.50
28087;DHT22;15392;48.912;8.380;2023-01-08T09:29:41;14.30;57.50
28087;DHT22;15392;48.912;8.380;2023-01-08T09:32:08;14.30;57.50
28087;DHT22;15392;48.912;8.380;2023-01-08T09:34:34;14.30;57.70
28087;DHT22;15392;48.912;8.380;2023-01-08T09:37:03;14.30;57.60
28087;DHT22;15392;48.912;8.380;2023-01-08T09:39:30;14.30;57.70
28087;DHT22;15392;48.912;8.380;2023-01-08T09:41:57;14.30;57.60
28087;DHT22;15392;48.912;8.380;2023-01-08T09:44:29;14.30;57.70
28087;DHT22;15392;48.912;8.380;2023-01-08T09:46:56;14.30;57.70
28087;DHT22;15392;48.912;8.380;2023-01-08T09:49:26;14.30;59.00
28087;DHT22;15392;48.912;8.380;2023-01-08T09:52:03;14.30;57.40
28087;DHT22;15392;48.912;8.380;2023-01-08T09:54:28;14.30;57.50
28087;DHT22;15392;48.912;8.380;2023-01-08T09:56:54;14.30;57.60
28087;DHT22;15392;48.912;8.380;2023-01-08T09:59:20;14.30;57.70
28087;DHT22;15392;48.912;8.380;2023-01-08T10:01:46;14.30;57.60
28087;DHT22;15392;48.912;8.380;2023-01-08T10:04:24;14.30;57.80
28087;DHT22;15392;48.912;8.380;2023-01-08T10:07:05;14.30;57.90
28087;DHT22;15392;48.912;8.380;2023-01-08T10:09:36;14.30;57.90
28087;DHT22;15392;48.912;8.380;2023-01-08T10:12:03;14.30;57.60
28087;DHT22;15392;48.912;8.380;2023-01-08T10:14:34;14.30;57.70
28087;DHT22;15392;48.912;8.380;2023-01-08T10:19:55;14.30;58.50
28087;DHT22;15392;48.912;8.380;2023-01-08T10:22:30;14.30;57.50
28087;DHT22;15392;48.912;8.380;2023-01-08T10:25:10;14.30;58.00
28087;DHT22;15392;48.912;8.380;2023-01-08T10:27:50;14.40;58.10
28087;DHT22;15392;48.912;8.380;2023-01-08T10:32:56;14.40;57.50
28087;DHT22;15392;48.912;8.380;2023-01-08T10:35:33;14.40;57.50
28087;DHT22;15392;48.912;8.380;2023-01-08T10:38:01;14.40;57.70
28087;DHT22;15392;48.912;8.380;2023-01-08T10:40:46;14.40;57.70
28087;DHT22;15392;48.912;8.380;2023-01-08T10:43:28;14.40;57.60
28087;DHT22;15392;48.912;8.380;2023-01-08T10:46:28;14.40;57.80
28087;DHT22;15392;48.912;8.380;2023-01-08T10:48:56;14.50;57.80
28087;DHT22;15392;48.912;8.380;2023-01-08T10:51:25;14.40;58.80
28087;DHT22;15392;48.912;8.380;2023-01-08T10:53:54;14.50;57.20
28087;DHT22;15392;48.912;8.380;2023-01-08T10:56:30;14.50;57.40
28087;DHT22;15392;48.912;8.380;2023-01-08T10:59:17;14.50;57.50
28087;DHT22;15392;48.912;8.380;2023-01-08T11:01:46;14.50;57.40
28087;DHT22;15392;48.912;8.380;2023-01-08T11:04:28;14.50;57.10
28087;DHT22;15392;48.912;8.380;2023-01-08T11:07:03;14.50;57.40
28087;DHT22;15392;48.912;8.380;2023-01-08T11:09:32;14.60;57.10
28087;DHT22;15392;48.912;8.380;2023-01-08T11:12:00;14.60;56.70
28087;DHT22;15392;48.912;8.380;2023-01-08T11:14:34;14.70;56.60
28087;DHT22;15392;48.912;8.380;2023-01-08T11:17:09;14.70;56.50
28087;DHT22;15392;48.912;8.380;2023-01-08T11:19:36;14.80;56.40
28087;DHT22;15392;48.912;8.380;2023-01-08T11:22:05;14.80;56.20
28087;DHT22;15392;48.912;8.380;2023-01-08T11:24:45;14.90;56.30
28087;DHT22;15392;48.912;8.380;2023-01-08T11:29:48;15.00;56.10
28087;DHT22;15392;48.912;8.380;2023-01-08T11:37:51;15.20;55.90
28087;DHT22;15392;48.912;8.380;2023-01-08T11:40:42;15.30;55.70
28087;DHT22;15392;48.912;8.380;2023-01-08T11:51:51;15.60;55.90
28087;DHT22;15392;48.912;8.380;2023-01-08T11:54:41;15.60;55.90
28087;DHT22;15392;48.912;8.380;2023-01-08T11:57:42;15.70;55.30
28087;DHT22;15392;48.912;8.380;2023-01-08T12:00:45;15.80;55.30
28087;DHT22;15392;48.912;8.380;2023-01-08T12:03:36;15.80;55.10
28087;DHT22;15392;48.912;8.380;2023-01-08T12:12:18;15.90;54.20
28087;DHT22;15392;48.912;8.380;2023-01-08T12:17:58;15.90;54.10
28087;DHT22;15392;48.912;8.380;2023-01-08T12:24:03;15.90;54.30
28087;DHT22;15392;48.912;8.380;2023-01-08T12:32:29;16.00;54.50
28087;DHT22;15392;48.912;8.380;2023-01-08T12:35:24;16.00;54.50
28087;DHT22;15392;48.912;8.380;2023-01-08T12:38:27;16.00;54.40
28087;DHT22;15392;48.912;8.380;2023-01-08T12:40:58;16.00;55.00
28087;DHT22;15392;48.912;8.380;2023-01-08T12:43:32;16.00;54.40
28087;DHT22;15392;48.912;8.380;2023-01-08T12:46:11;15.90;54.40
28087;DHT22;15392;48.912;8.380;2023-01-08T12:48:43;16.00;54.40
28087;DHT22;15392;48.912;8.380;2023-01-08T12:51:34;16.00;54.30
28087;DHT22;15392;48.912;8.380;2023-01-08T12:54:45;16.00;54.10
28087;DHT22;15392;48.912;8.380;2023-01-08T13:03:01;16.00;54.20
28087;DHT22;15392;48.912;8.380;2023-01-08T13:05:33;16.00;54.20
28087;DHT22;15392;48.912;8.380;2023-01-08T13:08:03;16.00;54.20
28087;DHT22;15392;48.912;8.380;2023-01-08T13:10:37;16.00;54.10
28087;DHT22;15392;48.912;8.380;2023-01-08T13:13:06;16.00;54.20
28087;DHT22;15392;48.912;8.380;2023-01-08T13:15:34;16.10;54.20
28087;DHT22;15392;48.912;8.380;2023-01-08T13:18:18;16.10;54.30
28087;DHT22;15392;48.912;8.380;2023-01-08T13:20:58;16.10;54.60
28087;DHT22;15392;48.912;8.380;2023-01-08T13:23:28;16.10;54.40
28087;DHT22;15392;48.912;8.380;2023-01-08T13:25:59;16.10;54.30
28087;DHT22;15392;48.912;8.380;2023-01-08T13:28:41;16.10;54.60
28087;DHT22;15392;48.912;8.380;2023-01-08T13:33:48;16.20;54.80
28087;DHT22;15392;48.912;8.380;2023-01-08T13:44:56;16.20;54.40
28087;DHT22;15392;48.912;8.380;2023-01-08T13:47:34;16.20;54.30
28087;DHT22;15392;48.912;8.380;2023-01-08T13:50:04;16.20;54.30
28087;DHT22;15392;48.912;8.380;2023-01-08T13:52:43;16.20;54.30
28087;DHT22;15392;48.912;8.380;2023-01-08T13:55:20;16.20;54.30
28087;DHT22;15392;48.912;8.380;2023-01-08T13:57:52;16.20;54.40
28087;DHT22;15392;48.912;8.380;2023-01-08T14:00:28;16.20;54.30
28087;DHT22;15392;48.912;8.380;2023-01-08T14:02:56;16.20;54.30
28087;DHT22;15392;48.912;8.380;2023-01-08T14:05:28;16.20;54.20
28087;DHT22;15392;48.912;8.380;2023-01-08T14:07:56;16.20;54.20
28087;DHT22;15392;48.912;8.380;2023-01-08T14:10:24;16.20;54.10
28087;DHT22;15392;48.912;8.380;2023-01-08T14:12:51;16.20;54.00
28087;DHT22;15392;48.912;8.380;2023-01-08T14:15:26;16.20;53.90
28087;DHT22;15392;48.912;8.380;2023-01-08T14:17:54;16.20;54.00
28087;DHT22;15392;48.912;8.380;2023-01-08T14:20:33;16.20;53.90
28087;DHT22;15392;48.912;8.380;2023-01-08T14:23:01;16.20;53.90
28087;DHT22;15392;48.912;8.380;2023-01-08T14:25:28;16.20;53.90
28087;DHT22;15392;48.912;8.380;2023-01-08T14:28:00;16.20;53.90
28087;DHT22;15392;48.912;8.380;2023-01-08T14:30:28;16.20;53.90
28087;DHT22;15392;48.912;8.380;2023-01-08T14:32:55;16.20;54.00
28087;DHT22;15392;48.912;8.380;2023-01-08T14:35:32;16.20;54.00
28087;DHT22;15392;48.912;8.380;2023-01-08T14:38:00;16.20;54.00
28087;DHT22;15392;48.912;8.380;2023-01-08T14:40:33;16.20;54.00
28087;DHT22;15392;48.912;8.380;2023-01-08T14:43:08;16.20;54.10
28087;DHT22;15392;48.912;8.380;2023-01-08T14:45:37;16.20;53.80
28087;DHT22;15392;48.912;8.380;2023-01-08T14:51:03;16.20;53.80
28087;DHT22;15392;48.912;8.380;2023-01-08T14:53:31;16.20;53.80
28087;DHT22;15392;48.912;8.380;2023-01-08T14:56:01;16.10;53.90
28087;DHT22;15392;48.912;8.380;2023-01-08T14:58:34;16.10;53.80
28087;DHT22;15392;48.912;8.380;2023-01-08T15:04:16;16.20;53.90
28087;DHT22;15392;48.912;8.380;2023-01-08T15:06:44;16.10;53.90
28087;DHT22;15392;48.912;8.380;2023-01-08T15:09:20;16.10;54.00
28087;DHT22;15392;48.912;8.380;2023-01-08T15:12:03;16.10;53.90
28087;DHT22;15392;48.912;8.380;2023-01-08T15:14:30;16.10;54.10
28087;DHT22;15392;48.912;8.380;2023-01-08T15:17:10;16.10;53.90
28087;DHT22;15392;48.912;8.380;2023-01-08T15:19:44;16.10;54.00
28087;DHT22;15392;48.912;8.380;2023-01-08T15:22:20;16.10;54.00
28087;DHT22;15392;48.912;8.380;2023-01-08T15:24:56;16.10;54.00
28087;DHT22;15392;48.912;8.380;2023-01-08T15:27:24;16.10;54.00
28087;DHT22;15392;48.912;8.380;2023-01-08T15:29:53;16.00;54.00
28087;DHT22;15392;48.912;8.380;2023-01-08T15:32:30;16.00;54.70
28087;DHT22;15392;48.912;8.380;2023-01-08T15:34:59;16.00;54.30
28087;DHT22;15392;48.912;8.380;2023-01-08T15:37:25;16.00;54.30
28087;DHT22;15392;48.912;8.380;2023-01-08T15:39:52;16.00;54.30
28087;DHT22;15392;48.912;8.380;2023-01-08T15:42:25;16.00;54.90
28087;DHT22;15392;48.912;8.380;2023-01-08T15:45:17;16.00;54.30
28087;DHT22;15392;48.912;8.380;2023-01-08T15:47:43;16.00;54.20
28087;DHT22;15392;48.912;8.380;2023-01-08T15:50:09;16.00;54.20
28087;DHT22;15392;48.912;8.380;2023-01-08T15:52:36;15.90;54.20
28087;DHT22;15392;48.912;8.380;2023-01-08T15:55:04;15.90;54.20
28087;DHT22;15392;48.912;8.380;2023-01-08T15:57:30;15.90;54.20
28087;DHT22;15392;48.912;8.380;2023-01-08T15:59:57;15.90;54.20
28087;DHT22;15392;48.912;8.380;2023-01-08T16:02:24;15.90;54.20
28087;DHT22;15392;48.912;8.380;2023-01-08T16:04:53;15.90;54.10
28087;DHT22;15392;48.912;8.380;2023-01-08T16:07:20;15.90;54.00
28087;DHT22;15392;48.912;8.380;2023-01-08T16:09:46;15.90;53.70
28087;DHT22;15392;48.912;8.380;2023-01-08T16:12:12;15.80;53.70
28087;DHT22;15392;48.912;8.380;2023-01-08T16:14:38;15.80;53.60
28087;DHT22;15392;48.912;8.380;2023-01-08T16:17:05;15.80;53.40
28087;DHT22;15392;48.912;8.380;2023-01-08T16:19:32;15.80;53.40
28087;DHT22;15392;48.912;8.380;2023-01-08T16:21:58;15.80;53.60
28087;DHT22;15392;48.912;8.380;2023-01-08T16:24:25;15.80;53.70
28087;DHT22;15392;48.912;8.380;2023-01-08T16:26:51;15.80;53.60
28087;DHT22;15392;48.912;8.380;2023-01-08T16:29:17;15.80;53.40
28087;DHT22;15392;48.912;8.380;2023-01-08T16:31:44;15.80;54.20
28087;DHT22;15392;48.912;8.380;2023-01-08T16:34:11;15.80;53.60
28087;DHT22;15392;48.912;8.380;2023-01-08T16:36:37;15.80;53.50
28087;DHT22;15392;48.912;8.380;2023-01-08T16:39:04;15.80;53.50
28087;DHT22;15392;48.912;8.380;2023-01-08T16:41:30;15.70;53.40
28087;DHT22;15392;48.912;8.380;2023-01-08T16:43:56;15.80;53.40
28087;DHT22;15392;48.912;8.380;2023-01-08T16:46:22;15.80;53.40
28087;DHT22;15392;48.912;8.380;2023-01-08T16:48:48;15.80;53.40
28087;DHT22;15392;48.912;8.380;2023-01-08T16:51:15;15.80;53.40
28087;DHT22;15392;48.912;8.380;2023-01-08T16:53:41;15.70;53.30
28087;DHT22;15392;48.912;8.380;2023-01-08T16:56:07;15.70;53.20
28087;DHT22;15392;48.912;8.380;2023-01-08T16:58:33;15.70;53.00
28087;DHT22;15392;48.912;8.380;2023-01-08T17:01:00;15.70;52.90
28087;DHT22;15392;48.912;8.380;2023-01-08T17:03:28;15.60;52.80
28087;DHT22;15392;48.912;8.380;2023-01-08T17:05:53;15.60;52.90